createdAt,value
2019-02-12T00:03:10.879Z,2.03
2019-02-12T00:09:05.890Z,2.26
2019-02-12T00:15:00.868Z,3.1
2019-02-12T00:20:55.923Z,2.2
2019-02-12T00:26:50.885Z,2.74
2019-02-12T00:32:45.887Z,1.66
2019-02-12T00:38:40.937Z,2.4
2019-02-12T00:44:35.893Z,2.69
2019-02-12T00:50:30.945Z,1.93
2019-02-12T00:56:25.918Z,2.65
2019-02-12T01:02:20.965Z,1.34
2019-02-12T01:08:15.926Z,1.84
2019-02-12T01:14:10.942Z,1.34
2019-02-12T01:20:05.931Z,1.13
2019-02-12T01:26:00.936Z,1.69
2019-02-12T01:31:55.936Z,2
2019-02-12T01:37:50.958Z,1.85
2019-02-12T01:43:45.964Z,1.23
2019-02-12T01:49:40.977Z,1.32
2019-02-12T01:55:36.018Z,1.23
2019-02-12T02:01:30.968Z,1.72
2019-02-12T02:07:25.960Z,1.91
2019-02-12T02:13:20.986Z,2.24
2019-02-12T02:19:15.965Z,1.45
2019-02-12T02:25:11.034Z,1.12
2019-02-12T02:31:06.016Z,1.19
2019-02-12T02:37:01.039Z,0.99
2019-02-12T02:42:56.032Z,0.99
2019-02-12T02:48:51.056Z,1.9
2019-02-12T02:54:46.012Z,1.2
2019-02-12T03:00:41.009Z,2.07
2019-02-12T03:06:36.085Z,1.09
2019-02-12T03:12:31.042Z,3.2
2019-02-12T03:18:26.086Z,1.28
2019-02-12T03:24:21.040Z,2.04
2019-02-12T03:30:16.037Z,1.71
2019-02-12T03:36:11.103Z,1.63
2019-02-12T03:42:06.029Z,1.43
2019-02-12T03:48:01.048Z,2.57
2019-02-12T03:53:56.068Z,1.96
2019-02-12T03:59:51.134Z,1.02
2019-02-12T04:05:46.072Z,1.1
2019-02-12T04:11:41.095Z,1.26
2019-02-12T04:17:36.140Z,4.4
2019-02-12T04:23:31.097Z,8.32
2019-02-12T04:29:26.114Z,6.03
2019-02-12T04:35:21.103Z,6.1
2019-02-12T04:41:16.090Z,6.12
2019-02-12T04:47:11.153Z,5.4
2019-02-12T04:53:06.112Z,5.03
2019-02-12T04:59:01.108Z,2.89
2019-02-12T05:04:56.130Z,2.58
2019-02-12T05:10:51.131Z,2.04
2019-02-12T05:16:46.147Z,1.67
2019-02-12T05:22:43.361Z,1.7
2019-02-12T05:28:36.146Z,1.67
2019-02-12T05:34:31.180Z,2.19
2019-02-12T05:40:26.170Z,1.44
2019-02-12T05:46:21.179Z,2.04
2019-02-12T05:52:16.169Z,1.92
2019-02-12T05:58:11.156Z,1.6
2019-02-12T06:04:06.162Z,3.99
2019-02-12T06:10:01.199Z,3.17
2019-02-12T06:15:56.210Z,2.01
2019-02-12T06:21:51.236Z,1.89
2019-02-12T06:27:46.176Z,3.04
2019-02-12T06:33:41.196Z,3.69
2019-02-12T06:39:36.221Z,8.34
2019-02-12T06:45:31.230Z,6.02
2019-02-12T06:51:26.214Z,11.28
2019-02-12T06:57:21.221Z,6.26
2019-02-12T07:03:16.259Z,8.93
2019-02-12T07:09:11.219Z,12.15
2019-02-12T07:15:06.216Z,10.86
2019-02-12T07:21:01.293Z,15.54
2019-02-12T07:26:56.236Z,15.38
2019-02-12T07:32:51.248Z,16.46
2019-02-12T07:38:46.243Z,10.97
2019-02-12T07:44:41.254Z,9.37
2019-02-12T07:50:36.311Z,13.21
2019-02-12T07:56:31.315Z,11.95
2019-02-12T08:02:26.313Z,11.25
2019-02-12T08:08:21.339Z,9.81
2019-02-12T08:14:16.263Z,10.43
2019-02-12T08:20:11.291Z,7.25
2019-02-12T08:26:06.283Z,10.92
2019-02-12T08:32:01.308Z,8.69
2019-02-12T08:37:56.277Z,13.1
2019-02-12T08:43:51.294Z,6.92
2019-02-12T08:49:46.336Z,7.29
2019-02-12T08:55:41.300Z,2.86
2019-02-12T09:01:36.303Z,2.28
2019-02-12T09:07:31.310Z,4.69
2019-02-12T09:13:26.322Z,12.23
2019-02-12T09:19:21.328Z,5.32
2019-02-12T09:25:16.347Z,9.17
2019-02-12T09:31:11.334Z,17.46
2019-02-12T09:37:06.373Z,13.53
2019-02-12T09:43:01.394Z,17.85
2019-02-12T09:48:56.355Z,10.69
2019-02-12T09:54:51.398Z,9.31
2019-02-12T10:00:46.372Z,11.62
2019-02-12T10:06:41.415Z,8.68
2019-02-12T10:12:36.410Z,6.59
2019-02-12T10:18:31.383Z,10.24
2019-02-12T10:24:26.429Z,6.67
2019-02-12T10:30:21.410Z,2.29
2019-02-12T10:36:16.445Z,4.27
2019-02-12T10:42:11.399Z,2.3
2019-02-12T10:48:06.458Z,3.71
2019-02-12T10:54:01.428Z,3.65
2019-02-12T10:59:56.415Z,5.22
2019-02-12T11:05:51.397Z,5.93
2019-02-12T11:11:46.427Z,4.3
2019-02-12T11:17:41.431Z,5.15
2019-02-12T11:23:36.430Z,5.29
2019-02-12T11:29:31.438Z,2.94
2019-02-12T11:35:26.428Z,3.21
2019-02-12T11:41:21.444Z,3.84
2019-02-12T11:47:16.444Z,2.67
2019-02-12T11:53:11.447Z,3.76
2019-02-12T11:59:06.465Z,3.82
2019-02-12T12:05:01.493Z,1.72
2019-02-12T12:10:56.478Z,3.28
2019-02-12T12:16:51.489Z,3.41
2019-02-12T12:22:46.481Z,2.69
2019-02-12T12:28:41.513Z,3.4
2019-02-12T12:34:36.510Z,3.79
2019-02-12T12:40:31.491Z,4.04
2019-02-12T12:46:26.560Z,4.34
2019-02-12T12:52:21.516Z,3.15
2019-02-12T12:58:16.523Z,4.8
2019-02-12T13:04:11.506Z,4.37
2019-02-12T13:10:06.523Z,4.65
2019-02-12T13:16:02.967Z,5.67
2019-02-12T13:21:56.562Z,3.53
2019-02-12T13:27:51.545Z,3.4
2019-02-12T13:33:46.546Z,3.03
2019-02-12T13:39:41.578Z,4.15
2019-02-12T13:45:36.549Z,3.76
2019-02-12T13:51:31.595Z,3.48
2019-02-12T13:57:26.583Z,4.25
2019-02-12T14:03:22.599Z,4.13
2019-02-12T14:09:16.620Z,3.94
2019-02-12T14:15:11.602Z,2.75
2019-02-12T14:21:06.597Z,6.14
2019-02-12T14:27:01.625Z,5.18
2019-02-12T14:32:56.599Z,3.98
2019-02-12T14:38:53.304Z,4.13
2019-02-12T14:44:46.624Z,4.51
2019-02-12T14:50:41.637Z,3.68
2019-02-12T14:56:36.668Z,3.6
2019-02-12T15:02:31.691Z,6.23
2019-02-12T15:08:26.668Z,4.95
2019-02-12T15:14:21.652Z,4.78
2019-02-12T15:20:16.719Z,3.18
2019-02-12T15:26:11.669Z,6.46
2019-02-12T15:32:06.707Z,5.65
2019-02-12T15:38:01.681Z,3.71
2019-02-12T15:43:56.675Z,3.81
2019-02-12T15:49:51.689Z,6.27
2019-02-12T15:55:51.261Z,4.9
2019-02-12T16:01:41.709Z,4.5
2019-02-12T16:07:36.723Z,3.9
2019-02-12T16:13:32.705Z,4.87
2019-02-12T16:19:28.015Z,3.31
2019-02-12T16:25:21.710Z,8.99
2019-02-12T16:31:18.503Z,7.04
2019-02-12T16:37:11.767Z,6.62
2019-02-12T16:43:06.727Z,8.72
2019-02-12T16:49:01.726Z,9.17
2019-02-12T16:54:56.781Z,10.43
2019-02-12T17:00:51.743Z,9.5
2019-02-12T17:06:46.798Z,6.91
2019-02-12T17:12:41.767Z,9.15
2019-02-12T17:18:36.774Z,6.6
2019-02-12T17:24:31.795Z,8.62
2019-02-12T17:30:26.825Z,9.52
2019-02-12T17:36:21.807Z,10.92
2019-02-12T17:42:16.822Z,10.79
2019-02-12T17:48:11.796Z,10.24
2019-02-12T17:54:06.809Z,10.08
2019-02-12T18:00:01.832Z,12.71
2019-02-12T18:05:56.870Z,9.57
2019-02-12T18:11:51.816Z,14.76
2019-02-12T18:17:46.831Z,10.97
2019-02-12T18:23:41.842Z,12.67
2019-02-12T18:29:37.032Z,20.17
2019-02-12T18:35:31.881Z,20.34
2019-02-12T18:41:26.846Z,13.27
2019-02-12T18:47:21.839Z,12.22
2019-02-12T18:53:16.835Z,16.02
2019-02-12T18:59:11.830Z,14.68
2019-02-12T19:05:06.891Z,18.92
2019-02-12T19:11:01.884Z,14.13
2019-02-12T19:16:56.874Z,17.21
2019-02-12T19:22:51.954Z,13.12
2019-02-12T19:28:46.886Z,20.69
2019-02-12T19:34:41.875Z,27.02
2019-02-12T19:40:36.899Z,22.11
2019-02-12T19:46:31.894Z,21.43
2019-02-12T19:52:26.927Z,24.4
2019-02-12T19:58:21.907Z,32.48
2019-02-12T20:04:16.963Z,13.03
2019-02-12T20:10:11.923Z,35.96
2019-02-12T20:16:06.990Z,14.8
2019-02-12T20:22:01.950Z,13.75
2019-02-12T20:27:56.982Z,17.54
2019-02-12T20:33:56.878Z,14.15
2019-02-12T20:39:46.981Z,12.57
2019-02-12T20:45:41.969Z,11.97
2019-02-12T20:51:36.952Z,10.74
2019-02-12T20:57:31.971Z,10.32
2019-02-12T21:03:27.002Z,12.95
2019-02-12T21:09:22.040Z,12.32
2019-02-12T21:15:16.981Z,10.02
2019-02-12T21:21:11.971Z,10.61
2019-02-12T21:27:07.005Z,8.22
2019-02-12T21:33:02.017Z,13.62
2019-02-12T21:38:56.997Z,12.49
2019-02-12T21:44:51.988Z,8.85
2019-02-12T21:50:47.066Z,10.3
2019-02-12T21:56:42.001Z,12.45
2019-02-12T22:02:37.012Z,11.28
2019-02-12T22:08:32.019Z,10.5
2019-02-12T22:14:27.043Z,9.55
2019-02-12T22:20:22.018Z,10.74
2019-02-12T22:26:17.072Z,8.99
2019-02-12T22:32:12.073Z,9.48
2019-02-12T22:38:07.045Z,7.79
2019-02-12T22:44:02.057Z,6.87
2019-02-12T22:49:57.063Z,7.42
2019-02-12T22:55:52.057Z,5.58
2019-02-12T23:01:47.076Z,8.48
2019-02-12T23:07:42.090Z,8.1
2019-02-12T23:13:37.075Z,8.55
2019-02-12T23:19:32.104Z,7.55
2019-02-12T23:25:27.057Z,7.53
2019-02-12T23:31:22.080Z,7.1
2019-02-12T23:37:17.127Z,5.5
2019-02-12T23:43:12.103Z,7.14
2019-02-12T23:49:07.126Z,5.41
2019-02-12T23:55:02.134Z,6.92
